createdAt,value
2019-03-04T00:00:55.626Z,71.20
2019-03-04T00:03:23.905Z,71.10
2019-03-04T00:05:51.565Z,70.00
2019-03-04T00:08:19.696Z,69.30
2019-03-04T00:10:49.192Z,69.30
2019-03-04T00:13:18.161Z,70.20
2019-03-04T00:15:46.438Z,69.80
2019-03-04T00:18:14.722Z,70.00
2019-03-04T00:20:46.199Z,69.40
2019-03-04T00:25:41.465Z,68.80
2019-03-04T00:30:39.033Z,80.60
2019-03-04T00:33:07.771Z,71.30
2019-03-04T00:35:35.663Z,77.10
2019-03-04T00:38:04.351Z,73.90
2019-03-04T00:42:59.992Z,68.10
2019-03-04T00:50:23.711Z,71.50
2019-03-04T00:52:52.295Z,79.40
2019-03-04T00:55:20.002Z,71.20
2019-03-04T00:57:48.120Z,70.10
2019-03-04T01:00:18.076Z,65.90
2019-03-04T01:05:14.422Z,68.70
2019-03-04T01:10:14.774Z,68.60
2019-03-04T01:12:43.161Z,71.90
2019-03-04T01:20:11.118Z,75.00
2019-03-04T01:25:08.240Z,65.40
2019-03-04T01:35:01.189Z,63.00
2019-03-04T01:39:57.052Z,66.70
2019-03-04T01:44:52.956Z,73.90
2019-03-04T01:47:21.480Z,71.80
2019-03-04T01:49:49.596Z,71.60
2019-03-04T01:52:17.301Z,63.50
2019-03-04T01:54:46.174Z,67.70
2019-03-04T01:57:15.080Z,63.50
2019-03-04T01:59:42.630Z,63.70
2019-03-04T02:02:11.434Z,67.30
2019-03-04T02:07:07.720Z,64.80
2019-03-04T02:09:36.127Z,64.60
2019-03-04T02:12:03.977Z,65.80
2019-03-04T02:17:00.135Z,65.10
2019-03-04T02:19:28.225Z,65.50
2019-03-04T02:21:56.979Z,65.20
2019-03-04T02:26:57.352Z,65.90
2019-03-04T02:29:26.076Z,66.70
2019-03-04T02:31:56.610Z,66.40
2019-03-04T02:34:25.155Z,67.30
2019-03-04T02:36:53.541Z,66.80
2019-03-04T02:49:16.866Z,68.20
2019-03-04T02:51:45.226Z,69.00
2019-03-04T02:54:14.270Z,69.30
2019-03-04T02:56:42.303Z,69.40
2019-03-04T02:59:10.678Z,69.60
2019-03-04T03:04:06.738Z,70.40
2019-03-04T03:09:04.616Z,72.60
2019-03-04T03:11:34.187Z,78.30
2019-03-04T03:14:01.888Z,70.60
2019-03-04T03:16:30.481Z,73.30
2019-03-04T03:21:26.391Z,78.80
2019-03-04T03:31:19.787Z,78.90
2019-03-04T03:33:48.707Z,71.60
2019-03-04T03:41:14.267Z,71.70
2019-03-04T03:43:42.845Z,72.00
2019-03-04T03:46:11.197Z,80.30
2019-03-04T03:48:39.234Z,78.60
2019-03-04T03:51:07.995Z,75.60
2019-03-04T03:53:36.082Z,75.40
2019-03-04T03:58:33.224Z,73.00
2019-03-04T04:01:02.334Z,73.50
2019-03-04T04:03:29.969Z,76.50
2019-03-04T04:05:58.009Z,73.90
2019-03-04T04:08:27.182Z,73.90
2019-03-04T04:10:56.000Z,76.10
2019-03-04T04:13:26.208Z,73.70
2019-03-04T04:15:54.369Z,73.00
2019-03-04T04:18:22.703Z,73.00
2019-03-04T04:20:50.579Z,73.70
2019-03-04T04:23:18.635Z,72.90
2019-03-04T04:28:13.225Z,72.70
2019-03-04T04:30:42.115Z,73.30
2019-03-04T04:33:10.542Z,73.30
2019-03-04T04:35:39.189Z,72.60
2019-03-04T04:40:36.206Z,73.00
2019-03-04T04:43:03.865Z,73.90
2019-03-04T04:45:32.335Z,73.40
2019-03-04T04:55:24.729Z,77.00
2019-03-04T04:57:52.756Z,77.20
2019-03-04T05:05:16.156Z,82.90
2019-03-04T05:10:14.705Z,77.70
2019-03-04T05:12:43.172Z,77.30
2019-03-04T05:17:39.888Z,76.10
2019-03-04T05:20:11.085Z,74.00
2019-03-04T05:27:36.939Z,73.30
2019-03-04T05:30:05.964Z,73.40
2019-03-04T05:32:35.642Z,73.30
2019-03-04T05:35:04.434Z,74.60
2019-03-04T05:37:32.823Z,77.40
2019-03-04T05:40:01.710Z,72.40
2019-03-04T05:44:58.404Z,73.80
2019-03-04T05:50:12.690Z,71.50
2019-03-04T05:52:40.711Z,75.50
2019-03-04T05:55:13.066Z,76.10
2019-03-04T05:57:41.385Z,74.00
2019-03-04T06:00:13.250Z,72.50
2019-03-04T06:05:12.427Z,76.90
2019-03-04T06:07:43.715Z,73.90
2019-03-04T06:12:40.472Z,72.20
2019-03-04T06:17:40.883Z,73.50
2019-03-04T06:22:37.795Z,79.60
2019-03-04T06:25:08.116Z,75.00
2019-03-04T06:27:37.903Z,81.70
2019-03-04T06:30:06.959Z,75.40
2019-03-04T06:35:03.913Z,74.80
2019-03-04T06:37:32.244Z,74.10
2019-03-04T06:40:00.696Z,81.60
2019-03-04T06:42:28.700Z,75.10
2019-03-04T06:44:57.560Z,74.90
2019-03-04T06:49:54.431Z,78.40
2019-03-04T06:52:22.832Z,74.80
2019-03-04T06:55:41.861Z,74.80
2019-03-04T06:58:10.643Z,78.50
2019-03-04T07:01:11.305Z,73.40
2019-03-04T07:03:51.773Z,71.60
2019-03-04T07:06:19.792Z,71.80
2019-03-04T07:09:08.771Z,76.60
2019-03-04T07:14:05.311Z,69.20
2019-03-04T07:16:33.314Z,68.60
2019-03-04T07:21:31.474Z,67.50
2019-03-04T07:23:59.748Z,67.20
2019-03-04T07:26:27.729Z,66.80
2019-03-04T07:28:56.131Z,67.10
2019-03-04T07:31:24.535Z,70.30
2019-03-04T07:33:53.607Z,67.90
2019-03-04T07:36:21.271Z,72.60
2019-03-04T07:38:57.084Z,65.60
2019-03-04T07:41:26.249Z,64.50
2019-03-04T07:46:22.400Z,65.90
2019-03-04T07:48:56.287Z,68.20
2019-03-04T07:51:24.396Z,62.10
2019-03-04T07:53:52.527Z,68.60
2019-03-04T07:56:20.196Z,63.20
2019-03-04T07:58:47.886Z,59.90
2019-03-04T08:03:45.228Z,61.40
2019-03-04T08:09:14.567Z,58.90
2019-03-04T08:12:15.417Z,57.70
2019-03-04T08:17:11.371Z,57.50
2019-03-04T08:22:07.285Z,55.30
2019-03-04T08:24:36.057Z,55.10
2019-03-04T08:27:06.215Z,58.00
2019-03-04T08:29:34.690Z,56.30
2019-03-04T08:32:02.759Z,56.20
2019-03-04T08:34:31.458Z,63.50
2019-03-04T08:36:59.397Z,62.80
2019-03-04T08:39:27.822Z,63.80
2019-03-04T08:41:55.969Z,63.60
2019-03-04T08:44:23.319Z,68.50
2019-03-04T08:49:19.452Z,63.30
2019-03-04T08:51:47.326Z,65.20
2019-03-04T08:54:15.808Z,63.90
2019-03-04T08:56:43.898Z,67.60
2019-03-04T09:04:08.308Z,65.90
2019-03-04T09:06:55.392Z,60.20
2019-03-04T09:09:23.749Z,61.60
2019-03-04T09:14:20.661Z,55.40
2019-03-04T09:16:49.170Z,56.70
2019-03-04T09:21:45.680Z,51.70
2019-03-04T09:26:42.231Z,48.90
2019-03-04T09:29:10.402Z,48.00
2019-03-04T09:31:38.992Z,49.80
2019-03-04T09:34:08.459Z,47.90
2019-03-04T09:36:36.885Z,49.40
2019-03-04T09:41:34.556Z,44.80
2019-03-04T09:44:02.267Z,44.30
2019-03-04T09:51:27.459Z,39.80
2019-03-04T09:53:56.823Z,41.30
2019-03-04T09:56:24.126Z,41.50
2019-03-04T09:58:54.499Z,42.20
2019-03-04T10:01:41.555Z,41.30
2019-03-04T10:04:50.202Z,40.70
2019-03-04T10:08:02.219Z,42.20
2019-03-04T10:11:11.539Z,41.50
2019-03-04T10:14:04.899Z,40.40
2019-03-04T10:17:00.622Z,39.50
2019-03-04T10:20:04.232Z,38.00
2019-03-04T10:23:07.831Z,36.60
2019-03-04T10:28:53.181Z,39.90
2019-03-04T10:34:49.393Z,43.90
2019-03-04T10:37:51.941Z,44.60
2019-03-04T10:40:59.245Z,45.50
2019-03-04T10:44:20.917Z,46.40
2019-03-04T10:46:56.450Z,47.70
2019-03-04T10:49:26.351Z,50.70
2019-03-04T10:51:54.955Z,52.30
2019-03-04T10:54:23.147Z,54.40
2019-03-04T10:56:50.865Z,57.50
2019-03-04T10:59:19.690Z,59.10
2019-03-04T11:01:49.988Z,61.50
2019-03-04T11:04:17.960Z,58.00
2019-03-04T11:06:45.657Z,57.60
2019-03-04T11:09:13.900Z,53.70
2019-03-04T11:11:43.388Z,46.80
2019-03-04T11:14:12.674Z,43.10
2019-03-04T11:19:09.469Z,35.00
2019-03-04T11:21:38.157Z,38.50
2019-03-04T11:24:07.791Z,39.90
2019-03-04T11:26:35.506Z,42.90
2019-03-04T11:31:32.849Z,43.50
2019-03-04T11:34:01.337Z,43.90
2019-03-04T11:36:29.793Z,37.50
2019-03-04T11:39:21.301Z,37.10
2019-03-04T11:41:50.166Z,35.70
2019-03-04T11:44:18.495Z,38.50
2019-03-04T11:46:46.241Z,41.60
2019-03-04T11:49:15.417Z,43.40
2019-03-04T11:51:43.962Z,44.90
2019-03-04T11:54:12.672Z,46.00
2019-03-04T11:56:41.479Z,45.80
2019-03-04T11:59:10.152Z,46.10
2019-03-04T12:01:44.629Z,41.10
2019-03-04T12:04:12.739Z,41.80
2019-03-04T12:06:40.419Z,41.90
2019-03-04T12:09:13.393Z,39.80
2019-03-04T12:11:42.097Z,41.50
2019-03-04T12:14:10.204Z,42.10
2019-03-04T12:16:38.432Z,43.10
2019-03-04T12:19:06.526Z,43.70
2019-03-04T12:21:34.995Z,44.50
2019-03-04T12:24:02.322Z,47.30
2019-03-04T12:26:30.868Z,47.90
2019-03-04T12:28:58.633Z,49.00
2019-03-04T12:31:30.717Z,51.00
2019-03-04T12:36:29.571Z,46.80
2019-03-04T12:38:58.033Z,46.60
2019-03-04T12:41:25.877Z,48.50
2019-03-04T12:43:55.123Z,48.70
2019-03-04T12:46:23.282Z,49.90
2019-03-04T12:51:23.391Z,53.10
2019-03-04T12:53:50.675Z,53.00
2019-03-04T12:56:18.396Z,53.60
2019-03-04T12:58:47.255Z,56.90
2019-03-04T13:01:15.975Z,56.60
2019-03-04T13:03:43.901Z,56.90
2019-03-04T13:06:12.670Z,57.90
2019-03-04T13:08:40.536Z,60.30
2019-03-04T13:11:09.657Z,61.60
2019-03-04T13:13:38.022Z,62.40
2019-03-04T13:16:06.500Z,64.00
2019-03-04T13:18:34.899Z,64.80
2019-03-04T13:21:03.421Z,65.30
2019-03-04T13:23:31.254Z,66.00
2019-03-04T13:26:01.567Z,67.60
2019-03-04T13:28:30.354Z,68.00
2019-03-04T13:30:58.734Z,67.60
2019-03-04T13:33:26.818Z,67.40
2019-03-04T13:35:56.529Z,67.50
2019-03-04T13:38:24.290Z,68.80
2019-03-04T13:40:51.966Z,69.10
2019-03-04T13:43:22.670Z,69.50
2019-03-04T13:45:50.392Z,70.00
2019-03-04T13:48:19.129Z,70.50
2019-03-04T13:51:38.658Z,73.00
2019-03-04T13:54:06.732Z,73.20
2019-03-04T13:56:35.371Z,74.00
2019-03-04T13:59:04.507Z,74.60
2019-03-04T14:01:33.453Z,74.80
2019-03-04T14:04:02.547Z,75.30
2019-03-04T14:06:29.856Z,73.90
2019-03-04T14:09:04.152Z,73.80
2019-03-04T14:11:32.440Z,72.60
2019-03-04T14:14:01.961Z,72.80
2019-03-04T14:16:30.181Z,72.80
2019-03-04T14:18:58.872Z,73.00
2019-03-04T14:21:27.686Z,73.50
2019-03-04T14:23:56.254Z,73.60
2019-03-04T14:26:24.588Z,73.60
2019-03-04T14:28:52.914Z,74.00
2019-03-04T14:31:21.003Z,73.80
2019-03-04T14:33:49.189Z,73.90
2019-03-04T14:36:18.534Z,73.90
2019-03-04T14:38:47.023Z,73.90
2019-03-04T14:41:15.967Z,73.80
2019-03-04T14:43:44.508Z,73.90
2019-03-04T14:46:21.415Z,76.60
2019-03-04T14:48:49.910Z,77.40
2019-03-04T14:51:19.029Z,77.00
2019-03-04T14:53:47.438Z,74.20
2019-03-04T14:56:22.386Z,73.40
2019-03-04T14:58:46.176Z,71.70
2019-03-04T15:01:15.010Z,71.50
2019-03-04T15:03:43.058Z,72.60
2019-03-04T15:06:11.722Z,73.10
2019-03-04T15:08:41.915Z,73.00
2019-03-04T15:11:10.829Z,72.50
2019-03-04T15:13:39.062Z,73.10
2019-03-04T15:16:08.075Z,71.80
2019-03-04T15:18:36.575Z,71.80
2019-03-04T15:21:09.597Z,72.10
2019-03-04T15:23:38.310Z,70.90
2019-03-04T15:26:06.192Z,70.80
2019-03-04T15:28:34.709Z,71.20
2019-03-04T15:31:02.459Z,70.30
2019-03-04T15:33:30.226Z,71.20
2019-03-04T15:35:59.108Z,71.10
2019-03-04T15:38:29.255Z,68.80
2019-03-04T15:40:57.719Z,69.50
2019-03-04T15:43:26.765Z,67.70
2019-03-04T15:45:56.182Z,66.90
2019-03-04T15:48:25.799Z,67.60
2019-03-04T15:50:55.634Z,68.90
2019-03-04T15:53:24.354Z,69.30
2019-03-04T15:55:52.504Z,69.80
2019-03-04T15:58:21.067Z,68.20
2019-03-04T16:00:49.700Z,66.00
2019-03-04T16:03:18.315Z,67.00
2019-03-04T16:05:46.947Z,67.00
2019-03-04T16:08:15.188Z,68.00
2019-03-04T16:10:44.064Z,68.60
2019-03-04T16:13:12.173Z,68.30
2019-03-04T16:15:40.906Z,66.00
2019-03-04T16:18:09.463Z,65.80
2019-03-04T16:20:38.060Z,67.50
2019-03-04T16:23:07.318Z,65.80
2019-03-04T16:25:36.029Z,66.00
2019-03-04T16:28:10.205Z,66.20
2019-03-04T16:30:38.928Z,65.30
2019-03-04T16:33:06.720Z,66.00
2019-03-04T16:35:34.879Z,66.30
2019-03-04T16:38:03.375Z,66.00
2019-03-04T16:40:31.839Z,64.90
2019-03-04T16:42:59.934Z,65.00
2019-03-04T16:45:28.855Z,65.10
2019-03-04T16:47:57.099Z,64.80
2019-03-04T16:50:24.927Z,64.70
2019-03-04T16:52:53.234Z,64.60
2019-03-04T16:55:21.868Z,64.60
2019-03-04T16:57:49.581Z,64.80
2019-03-04T17:02:45.628Z,66.20
2019-03-04T17:05:14.803Z,67.10
2019-03-04T17:07:43.240Z,66.50
2019-03-04T17:10:11.624Z,66.80
2019-03-04T17:12:39.828Z,66.60
2019-03-04T17:15:10.255Z,66.80
2019-03-04T17:17:39.283Z,67.60
2019-03-04T17:20:09.274Z,67.60
2019-03-04T17:22:37.364Z,68.10
2019-03-04T17:25:07.269Z,79.70
2019-03-04T17:32:32.009Z,79.50
2019-03-04T17:42:24.024Z,78.80
2019-03-04T17:47:20.393Z,76.10
2019-03-04T17:49:47.805Z,69.20
2019-03-04T17:52:16.421Z,83.50
2019-03-04T17:54:44.546Z,77.50
2019-03-04T17:59:41.849Z,83.50
2019-03-04T18:04:39.080Z,74.80
2019-03-04T18:12:05.572Z,77.80
2019-03-04T18:14:34.549Z,88.70
2019-03-04T18:19:31.942Z,75.20
2019-03-04T18:22:00.219Z,77.60
2019-03-04T18:24:29.182Z,80.80
2019-03-04T18:30:17.284Z,76.20
2019-03-04T18:33:50.916Z,72.20
2019-03-04T18:39:07.530Z,82.60
2019-03-04T18:49:43.413Z,81.20
2019-03-04T18:54:45.241Z,81.10
2019-03-04T19:02:08.923Z,84.50
2019-03-04T19:04:38.201Z,82.10
2019-03-04T19:12:03.638Z,73.80
2019-03-04T19:14:34.824Z,68.10
2019-03-04T19:17:02.203Z,71.00
2019-03-04T19:19:39.158Z,77.50
2019-03-04T19:27:05.331Z,74.80
2019-03-04T19:32:01.952Z,74.70
2019-03-04T19:34:29.960Z,72.50
2019-03-04T19:46:50.192Z,78.20
2019-03-04T19:51:46.496Z,79.60
2019-03-04T19:56:45.740Z,83.30
2019-03-04T20:01:42.703Z,80.30
2019-03-04T20:11:38.278Z,82.60
2019-03-04T20:24:02.761Z,83.30
2019-03-04T20:26:30.469Z,81.00
2019-03-04T20:31:26.506Z,84.90
2019-03-04T20:33:55.091Z,84.20
2019-03-04T20:38:51.257Z,81.30
2019-03-04T20:46:14.862Z,85.60
2019-03-04T20:48:43.127Z,80.70
2019-03-04T20:51:11.244Z,78.20
2019-03-04T20:53:39.792Z,80.80
2019-03-04T20:56:07.866Z,81.50
2019-03-04T21:01:04.403Z,81.50
2019-03-04T21:03:35.103Z,86.50
2019-03-04T21:06:02.349Z,87.90
2019-03-04T21:42:16.465Z,81.00
2019-03-04T21:55:01.683Z,77.50
2019-03-04T22:00:10.023Z,82.30
2019-03-04T22:05:25.539Z,84.60
2019-03-04T22:07:53.908Z,81.30
2019-03-04T22:44:56.268Z,81.30
2019-03-04T22:52:21.008Z,80.60
2019-03-04T23:12:52.056Z,76.20
2019-03-04T23:15:22.337Z,80.80
2019-03-04T23:17:50.715Z,75.90
2019-03-04T23:30:12.836Z,77.20
2019-03-04T23:35:09.199Z,80.10
2019-03-04T23:45:01.714Z,86.10
2019-03-04T23:47:29.931Z,79.00
2019-03-04T23:55:06.078Z,77.30
